sensor_id;sensor_type;location;lat;lon;timestamp;temperature;humidity
10891;DHT22;5498;50.928;11.598;2023-03-17T00:00:30;7.00;56.30
10891;DHT22;5498;50.928;11.598;2023-03-17T00:03:36;7.00;55.90
10891;DHT22;5498;50.928;11.598;2023-03-17T00:06:40;7.00;55.80
10891;DHT22;5498;50.928;11.598;2023-03-17T00:09:42;7.00;55.40
10891;DHT22;5498;50.928;11.598;2023-03-17T00:12:44;7.00;55.30
10891;DHT22;5498;50.928;11.598;2023-03-17T00:15:50;7.00;55.50
10891;DHT22;5498;50.928;11.598;2023-03-17T00:18:56;7.00;55.50
10891;DHT22;5498;50.928;11.598;2023-03-17T00:21:58;7.10;55.00
10891;DHT22;5498;50.928;11.598;2023-03-17T00:25:01;7.00;54.80
10891;DHT22;5498;50.928;11.598;2023-03-17T00:28:17;7.40;54.60
10891;DHT22;5498;50.928;11.598;2023-03-17T00:31:22;7.10;55.00
10891;DHT22;5498;50.928;11.598;2023-03-17T00:34:26;7.10;54.80
10891;DHT22;5498;50.928;11.598;2023-03-17T00:37:28;7.10;54.50
10891;DHT22;5498;50.928;11.598;2023-03-17T00:40:30;7.10;54.80
10891;DHT22;5498;50.928;11.598;2023-03-17T00:43:32;7.10;54.90
10891;DHT22;5498;50.928;11.598;2023-03-17T00:46:35;7.20;55.00
10891;DHT22;5498;50.928;11.598;2023-03-17T00:49:39;7.20;55.40
10891;DHT22;5498;50.928;11.598;2023-03-17T00:52:42;7.20;55.20
10891;DHT22;5498;50.928;11.598;2023-03-17T00:55:44;7.20;55.50
10891;DHT22;5498;50.928;11.598;2023-03-17T00:58:47;7.20;55.50
10891;DHT22;5498;50.928;11.598;2023-03-17T01:01:49;7.20;54.90
10891;DHT22;5498;50.928;11.598;2023-03-17T01:04:52;7.20;55.40
10891;DHT22;5498;50.928;11.598;2023-03-17T01:07:55;7.20;55.60
10891;DHT22;5498;50.928;11.598;2023-03-17T01:10:58;7.20;55.70
10891;DHT22;5498;50.928;11.598;2023-03-17T01:14:01;7.20;55.50
10891;DHT22;5498;50.928;11.598;2023-03-17T01:17:04;7.20;55.50
10891;DHT22;5498;50.928;11.598;2023-03-17T01:20:15;7.20;56.00
10891;DHT22;5498;50.928;11.598;2023-03-17T01:23:18;7.20;56.30
10891;DHT22;5498;50.928;11.598;2023-03-17T01:26:21;7.20;55.70
10891;DHT22;5498;50.928;11.598;2023-03-17T01:29:23;7.20;55.90
10891;DHT22;5498;50.928;11.598;2023-03-17T01:32:26;7.20;55.80
10891;DHT22;5498;50.928;11.598;2023-03-17T01:35:29;7.30;55.90
10891;DHT22;5498;50.928;11.598;2023-03-17T01:38:31;7.30;55.80
10891;DHT22;5498;50.928;11.598;2023-03-17T01:41:33;7.20;55.80
10891;DHT22;5498;50.928;11.598;2023-03-17T01:45:00;7.20;56.10
10891;DHT22;5498;50.928;11.598;2023-03-17T01:48:04;7.20;56.30
10891;DHT22;5498;50.928;11.598;2023-03-17T01:51:11;7.20;55.90
10891;DHT22;5498;50.928;11.598;2023-03-17T01:54:19;7.30;56.00
10891;DHT22;5498;50.928;11.598;2023-03-17T01:57:26;7.30;55.70
10891;DHT22;5498;50.928;11.598;2023-03-17T02:00:32;7.30;55.70
10891;DHT22;5498;50.928;11.598;2023-03-17T02:03:34;7.30;55.50
10891;DHT22;5498;50.928;11.598;2023-03-17T02:06:38;7.30;55.00
10891;DHT22;5498;50.928;11.598;2023-03-17T02:09:40;7.30;55.70
10891;DHT22;5498;50.928;11.598;2023-03-17T02:12:45;7.30;55.60
10891;DHT22;5498;50.928;11.598;2023-03-17T02:15:50;7.30;55.50
10891;DHT22;5498;50.928;11.598;2023-03-17T02:18:52;7.30;55.70
10891;DHT22;5498;50.928;11.598;2023-03-17T02:21:55;7.30;55.70
10891;DHT22;5498;50.928;11.598;2023-03-17T02:24:58;7.30;55.70
10891;DHT22;5498;50.928;11.598;2023-03-17T02:28:05;7.40;55.00
10891;DHT22;5498;50.928;11.598;2023-03-17T02:31:09;7.40;55.30
10891;DHT22;5498;50.928;11.598;2023-03-17T02:34:11;7.40;54.70
10891;DHT22;5498;50.928;11.598;2023-03-17T02:37:15;7.40;54.80
10891;DHT22;5498;50.928;11.598;2023-03-17T02:40:18;7.40;55.00
10891;DHT22;5498;50.928;11.598;2023-03-17T02:43:19;7.40;54.80
10891;DHT22;5498;50.928;11.598;2023-03-17T02:46:22;7.40;54.00
10891;DHT22;5498;50.928;11.598;2023-03-17T02:49:24;7.50;54.40
10891;DHT22;5498;50.928;11.598;2023-03-17T02:52:27;7.50;55.30
10891;DHT22;5498;50.928;11.598;2023-03-17T02:55:29;7.50;54.20
10891;DHT22;5498;50.928;11.598;2023-03-17T02:58:32;7.50;54.40
10891;DHT22;5498;50.928;11.598;2023-03-17T03:01:34;7.50;54.30
10891;DHT22;5498;50.928;11.598;2023-03-17T03:04:36;7.50;54.40
10891;DHT22;5498;50.928;11.598;2023-03-17T03:07:39;7.50;54.50
10891;DHT22;5498;50.928;11.598;2023-03-17T03:10:41;7.50;54.70
10891;DHT22;5498;50.928;11.598;2023-03-17T03:13:43;7.50;54.70
10891;DHT22;5498;50.928;11.598;2023-03-17T03:16:46;7.50;54.70
10891;DHT22;5498;50.928;11.598;2023-03-17T03:19:48;7.50;54.90
10891;DHT22;5498;50.928;11.598;2023-03-17T03:22:51;7.60;54.50
10891;DHT22;5498;50.928;11.598;2023-03-17T03:25:53;7.60;54.50
10891;DHT22;5498;50.928;11.598;2023-03-17T03:28:55;7.50;54.60
10891;DHT22;5498;50.928;11.598;2023-03-17T03:31:57;7.50;54.60
10891;DHT22;5498;50.928;11.598;2023-03-17T03:34:59;7.50;54.70
10891;DHT22;5498;50.928;11.598;2023-03-17T03:38:02;7.60;54.40
10891;DHT22;5498;50.928;11.598;2023-03-17T03:41:04;7.60;54.20
10891;DHT22;5498;50.928;11.598;2023-03-17T03:44:06;7.60;54.30
10891;DHT22;5498;50.928;11.598;2023-03-17T03:47:08;7.60;54.50
10891;DHT22;5498;50.928;11.598;2023-03-17T03:50:11;7.60;54.40
10891;DHT22;5498;50.928;11.598;2023-03-17T03:53:15;7.60;54.20
10891;DHT22;5498;50.928;11.598;2023-03-17T03:56:17;7.60;53.80
10891;DHT22;5498;50.928;11.598;2023-03-17T03:59:18;7.60;53.80
10891;DHT22;5498;50.928;11.598;2023-03-17T04:02:21;7.70;53.40
10891;DHT22;5498;50.928;11.598;2023-03-17T04:05:22;7.70;53.50
10891;DHT22;5498;50.928;11.598;2023-03-17T04:08:26;7.80;53.50
10891;DHT22;5498;50.928;11.598;2023-03-17T04:11:27;7.60;53.50
10891;DHT22;5498;50.928;11.598;2023-03-17T04:14:29;7.60;53.50
10891;DHT22;5498;50.928;11.598;2023-03-17T04:17:31;7.60;53.60
10891;DHT22;5498;50.928;11.598;2023-03-17T04:20:33;7.60;53.70
10891;DHT22;5498;50.928;11.598;2023-03-17T04:23:36;7.60;53.60
10891;DHT22;5498;50.928;11.598;2023-03-17T04:26:38;7.60;53.50
10891;DHT22;5498;50.928;11.598;2023-03-17T04:29:41;7.60;53.70
10891;DHT22;5498;50.928;11.598;2023-03-17T04:32:43;7.60;53.80
10891;DHT22;5498;50.928;11.598;2023-03-17T04:35:45;7.60;54.10
10891;DHT22;5498;50.928;11.598;2023-03-17T04:38:49;7.60;53.90
10891;DHT22;5498;50.928;11.598;2023-03-17T04:41:51;7.60;53.90
10891;DHT22;5498;50.928;11.598;2023-03-17T04:44:53;7.60;54.00
10891;DHT22;5498;50.928;11.598;2023-03-17T04:47:54;7.60;53.90
10891;DHT22;5498;50.928;11.598;2023-03-17T04:50:56;7.70;53.80
10891;DHT22;5498;50.928;11.598;2023-03-17T04:54:00;7.60;53.90
10891;DHT22;5498;50.928;11.598;2023-03-17T04:57:02;7.60;54.10
10891;DHT22;5498;50.928;11.598;2023-03-17T05:00:05;7.60;54.40
10891;DHT22;5498;50.928;11.598;2023-03-17T05:03:09;7.60;54.60
10891;DHT22;5498;50.928;11.598;2023-03-17T05:06:11;7.60;54.40
10891;DHT22;5498;50.928;11.598;2023-03-17T05:09:14;7.50;54.40
10891;DHT22;5498;50.928;11.598;2023-03-17T05:12:16;7.50;54.70
10891;DHT22;5498;50.928;11.598;2023-03-17T05:15:17;7.50;54.70
10891;DHT22;5498;50.928;11.598;2023-03-17T05:18:22;7.50;54.30
10891;DHT22;5498;50.928;11.598;2023-03-17T05:21:25;7.50;54.40
10891;DHT22;5498;50.928;11.598;2023-03-17T05:24:28;7.90;54.20
10891;DHT22;5498;50.928;11.598;2023-03-17T05:27:30;7.50;54.30
10891;DHT22;5498;50.928;11.598;2023-03-17T05:30:32;7.50;54.10
10891;DHT22;5498;50.928;11.598;2023-03-17T05:33:35;7.40;54.40
10891;DHT22;5498;50.928;11.598;2023-03-17T05:36:37;7.40;54.50
10891;DHT22;5498;50.928;11.598;2023-03-17T05:39:41;7.40;54.70
10891;DHT22;5498;50.928;11.598;2023-03-17T05:42:43;7.40;54.60
10891;DHT22;5498;50.928;11.598;2023-03-17T05:45:45;7.40;54.70
10891;DHT22;5498;50.928;11.598;2023-03-17T05:48:49;7.40;55.10
10891;DHT22;5498;50.928;11.598;2023-03-17T05:51:51;7.40;55.00
10891;DHT22;5498;50.928;11.598;2023-03-17T05:54:54;7.40;55.00
10891;DHT22;5498;50.928;11.598;2023-03-17T05:57:56;7.40;55.10
10891;DHT22;5498;50.928;11.598;2023-03-17T06:01:00;7.40;55.10
10891;DHT22;5498;50.928;11.598;2023-03-17T06:04:02;7.40;55.50
10891;DHT22;5498;50.928;11.598;2023-03-17T06:07:04;7.50;55.20
10891;DHT22;5498;50.928;11.598;2023-03-17T06:10:09;7.50;55.20
10891;DHT22;5498;50.928;11.598;2023-03-17T06:13:12;7.50;55.50
10891;DHT22;5498;50.928;11.598;2023-03-17T06:16:14;7.40;55.10
10891;DHT22;5498;50.928;11.598;2023-03-17T06:19:16;7.50;55.40
10891;DHT22;5498;50.928;11.598;2023-03-17T06:22:18;7.50;54.70
10891;DHT22;5498;50.928;11.598;2023-03-17T06:25:21;7.50;54.70
10891;DHT22;5498;50.928;11.598;2023-03-17T06:28:23;7.60;54.70
10891;DHT22;5498;50.928;11.598;2023-03-17T06:31:25;7.70;54.90
10891;DHT22;5498;50.928;11.598;2023-03-17T06:34:27;7.70;54.80
10891;DHT22;5498;50.928;11.598;2023-03-17T06:37:28;7.80;55.00
10891;DHT22;5498;50.928;11.598;2023-03-17T06:40:32;7.90;55.10
10891;DHT22;5498;50.928;11.598;2023-03-17T06:43:34;8.10;55.00
10891;DHT22;5498;50.928;11.598;2023-03-17T06:46:36;8.10;54.70
10891;DHT22;5498;50.928;11.598;2023-03-17T06:49:37;8.20;54.40
10891;DHT22;5498;50.928;11.598;2023-03-17T06:52:40;8.20;53.90
10891;DHT22;5498;50.928;11.598;2023-03-17T06:55:43;8.20;54.00
10891;DHT22;5498;50.928;11.598;2023-03-17T06:58:45;8.40;54.00
10891;DHT22;5498;50.928;11.598;2023-03-17T07:01:47;8.60;53.50
10891;DHT22;5498;50.928;11.598;2023-03-17T07:04:49;8.90;53.20
10891;DHT22;5498;50.928;11.598;2023-03-17T07:07:51;9.00;52.40
10891;DHT22;5498;50.928;11.598;2023-03-17T07:10:55;9.30;52.50
10891;DHT22;5498;50.928;11.598;2023-03-17T07:13:58;9.50;52.70
10891;DHT22;5498;50.928;11.598;2023-03-17T07:17:00;9.70;52.10
10891;DHT22;5498;50.928;11.598;2023-03-17T07:20:03;9.90;52.00
10891;DHT22;5498;50.928;11.598;2023-03-17T07:23:07;10.10;51.80
10891;DHT22;5498;50.928;11.598;2023-03-17T07:26:11;10.30;51.90
10891;DHT22;5498;50.928;11.598;2023-03-17T07:29:14;10.50;50.90
10891;DHT22;5498;50.928;11.598;2023-03-17T07:32:16;10.60;50.10
10891;DHT22;5498;50.928;11.598;2023-03-17T07:35:17;10.80;49.80
10891;DHT22;5498;50.928;11.598;2023-03-17T07:38:19;10.90;49.50
10891;DHT22;5498;50.928;11.598;2023-03-17T07:41:23;11.10;49.30
10891;DHT22;5498;50.928;11.598;2023-03-17T07:44:25;11.30;49.10
10891;DHT22;5498;50.928;11.598;2023-03-17T07:47:28;11.50;49.10
10891;DHT22;5498;50.928;11.598;2023-03-17T07:50:30;11.60;48.10
10891;DHT22;5498;50.928;11.598;2023-03-17T07:53:32;11.90;48.60
10891;DHT22;5498;50.928;11.598;2023-03-17T07:56:35;12.20;48.20
10891;DHT22;5498;50.928;11.598;2023-03-17T07:59:37;12.40;47.40
10891;DHT22;5498;50.928;11.598;2023-03-17T08:02:39;12.50;46.80
10891;DHT22;5498;50.928;11.598;2023-03-17T08:05:41;12.70;47.00
10891;DHT22;5498;50.928;11.598;2023-03-17T08:08:44;12.80;47.00
10891;DHT22;5498;50.928;11.598;2023-03-17T08:11:48;13.00;46.80
10891;DHT22;5498;50.928;11.598;2023-03-17T08:14:50;13.10;46.40
10891;DHT22;5498;50.928;11.598;2023-03-17T08:17:52;13.10;45.50
10891;DHT22;5498;50.928;11.598;2023-03-17T08:20:54;13.20;46.10
10891;DHT22;5498;50.928;11.598;2023-03-17T08:23:55;13.20;46.00
10891;DHT22;5498;50.928;11.598;2023-03-17T08:26:59;13.20;46.10
10891;DHT22;5498;50.928;11.598;2023-03-17T08:30:01;13.30;45.60
10891;DHT22;5498;50.928;11.598;2023-03-17T08:33:03;13.30;45.70
10891;DHT22;5498;50.928;11.598;2023-03-17T08:36:07;13.60;45.90
10891;DHT22;5498;50.928;11.598;2023-03-17T08:39:10;13.30;46.50
10891;DHT22;5498;50.928;11.598;2023-03-17T08:42:13;13.30;45.90
10891;DHT22;5498;50.928;11.598;2023-03-17T08:45:16;13.30;45.70
10891;DHT22;5498;50.928;11.598;2023-03-17T08:48:18;13.40;46.00
10891;DHT22;5498;50.928;11.598;2023-03-17T08:51:21;13.60;46.20
10891;DHT22;5498;50.928;11.598;2023-03-17T08:54:23;13.70;46.10
10891;DHT22;5498;50.928;11.598;2023-03-17T08:57:27;14.00;45.30
10891;DHT22;5498;50.928;11.598;2023-03-17T09:00:29;14.10;45.00
10891;DHT22;5498;50.928;11.598;2023-03-17T09:03:31;14.30;45.20
10891;DHT22;5498;50.928;11.598;2023-03-17T09:06:34;14.50;45.10
10891;DHT22;5498;50.928;11.598;2023-03-17T09:09:36;14.80;44.70
10891;DHT22;5498;50.928;11.598;2023-03-17T09:12:40;15.00;44.90
10891;DHT22;5498;50.928;11.598;2023-03-17T09:15:42;15.20;44.30
10891;DHT22;5498;50.928;11.598;2023-03-17T09:18:44;15.50;42.80
10891;DHT22;5498;50.928;11.598;2023-03-17T09:21:47;15.70;43.60
10891;DHT22;5498;50.928;11.598;2023-03-17T09:24:49;15.80;42.80
10891;DHT22;5498;50.928;11.598;2023-03-17T09:27:52;16.00;43.10
10891;DHT22;5498;50.928;11.598;2023-03-17T09:30:57;16.20;42.50
10891;DHT22;5498;50.928;11.598;2023-03-17T09:34:00;16.30;42.40
10891;DHT22;5498;50.928;11.598;2023-03-17T09:37:03;16.40;42.50
10891;DHT22;5498;50.928;11.598;2023-03-17T09:40:06;16.60;43.00
10891;DHT22;5498;50.928;11.598;2023-03-17T09:43:18;16.70;42.90
10891;DHT22;5498;50.928;11.598;2023-03-17T09:46:37;16.90;42.80
10891;DHT22;5498;50.928;11.598;2023-03-17T09:49:46;17.00;42.10
10891;DHT22;5498;50.928;11.598;2023-03-17T09:52:50;17.10;42.10
10891;DHT22;5498;50.928;11.598;2023-03-17T09:55:57;17.20;41.00
10891;DHT22;5498;50.928;11.598;2023-03-17T09:59:05;17.10;41.40
10891;DHT22;5498;50.928;11.598;2023-03-17T10:02:21;17.00;41.50
10891;DHT22;5498;50.928;11.598;2023-03-17T10:05:26;17.10;42.00
10891;DHT22;5498;50.928;11.598;2023-03-17T10:08:32;17.00;42.10
10891;DHT22;5498;50.928;11.598;2023-03-17T10:11:39;16.90;41.60
10891;DHT22;5498;50.928;11.598;2023-03-17T10:14:53;17.00;41.80
10891;DHT22;5498;50.928;11.598;2023-03-17T10:17:58;17.10;42.20
10891;DHT22;5498;50.928;11.598;2023-03-17T10:21:04;17.20;41.60
10891;DHT22;5498;50.928;11.598;2023-03-17T10:24:09;17.20;41.40
10891;DHT22;5498;50.928;11.598;2023-03-17T10:27:14;17.80;40.60
10891;DHT22;5498;50.928;11.598;2023-03-17T10:30:20;17.60;40.70
10891;DHT22;5498;50.928;11.598;2023-03-17T10:33:23;17.60;40.10
10891;DHT22;5498;50.928;11.598;2023-03-17T10:36:34;17.70;39.90
10891;DHT22;5498;50.928;11.598;2023-03-17T10:39:43;18.00;39.70
10891;DHT22;5498;50.928;11.598;2023-03-17T10:42:48;17.60;39.40
10891;DHT22;5498;50.928;11.598;2023-03-17T10:45:58;17.40;39.70
10891;DHT22;5498;50.928;11.598;2023-03-17T10:49:06;17.30;39.90
10891;DHT22;5498;50.928;11.598;2023-03-17T10:52:19;17.10;40.20
10891;DHT22;5498;50.928;11.598;2023-03-17T10:55:27;17.30;40.60
10891;DHT22;5498;50.928;11.598;2023-03-17T10:58:35;17.40;40.70
10891;DHT22;5498;50.928;11.598;2023-03-17T11:01:48;18.00;41.10
10891;DHT22;5498;50.928;11.598;2023-03-17T11:05:14;17.70;40.70
10891;DHT22;5498;50.928;11.598;2023-03-17T11:08:30;17.80;40.50
10891;DHT22;5498;50.928;11.598;2023-03-17T11:11:44;17.80;40.60
10891;DHT22;5498;50.928;11.598;2023-03-17T11:14:47;17.80;40.70
10891;DHT22;5498;50.928;11.598;2023-03-17T11:17:54;17.90;41.00
10891;DHT22;5498;50.928;11.598;2023-03-17T11:21:01;17.90;41.20
10891;DHT22;5498;50.928;11.598;2023-03-17T11:24:08;18.00;41.00
10891;DHT22;5498;50.928;11.598;2023-03-17T11:27:17;17.90;40.20
10891;DHT22;5498;50.928;11.598;2023-03-17T11:30:28;17.90;41.10
10891;DHT22;5498;50.928;11.598;2023-03-17T11:33:41;17.90;41.00
10891;DHT22;5498;50.928;11.598;2023-03-17T11:36:54;17.80;41.20
10891;DHT22;5498;50.928;11.598;2023-03-17T11:40:05;17.80;41.70
10891;DHT22;5498;50.928;11.598;2023-03-17T11:43:24;17.80;43.80
10891;DHT22;5498;50.928;11.598;2023-03-17T11:46:34;17.90;43.90
10891;DHT22;5498;50.928;11.598;2023-03-17T11:49:39;17.90;44.50
10891;DHT22;5498;50.928;11.598;2023-03-17T11:52:51;17.90;45.20
10891;DHT22;5498;50.928;11.598;2023-03-17T11:56:05;18.00;45.40
10891;DHT22;5498;50.928;11.598;2023-03-17T11:59:22;17.50;41.70
10891;DHT22;5498;50.928;11.598;2023-03-17T12:02:31;17.60;43.00
10891;DHT22;5498;50.928;11.598;2023-03-17T12:05:41;17.60;42.60
10891;DHT22;5498;50.928;11.598;2023-03-17T12:08:49;17.40;42.50
10891;DHT22;5498;50.928;11.598;2023-03-17T12:12:00;17.50;44.00
10891;DHT22;5498;50.928;11.598;2023-03-17T12:15:08;17.30;44.00
10891;DHT22;5498;50.928;11.598;2023-03-17T12:18:18;17.50;43.80
10891;DHT22;5498;50.928;11.598;2023-03-17T12:21:31;17.50;43.40
10891;DHT22;5498;50.928;11.598;2023-03-17T12:24:39;17.70;43.90
10891;DHT22;5498;50.928;11.598;2023-03-17T12:27:51;17.80;43.20
10891;DHT22;5498;50.928;11.598;2023-03-17T12:31:02;18.00;43.40
10891;DHT22;5498;50.928;11.598;2023-03-17T12:34:11;17.90;41.70
10891;DHT22;5498;50.928;11.598;2023-03-17T12:37:17;18.00;43.30
10891;DHT22;5498;50.928;11.598;2023-03-17T12:40:22;18.00;43.10
10891;DHT22;5498;50.928;11.598;2023-03-17T12:43:39;18.20;44.40
10891;DHT22;5498;50.928;11.598;2023-03-17T12:47:10;18.30;44.90
10891;DHT22;5498;50.928;11.598;2023-03-17T12:51:07;18.50;45.00
10891;DHT22;5498;50.928;11.598;2023-03-17T12:54:27;18.70;44.70
10891;DHT22;5498;50.928;11.598;2023-03-17T12:57:38;18.80;44.50
10891;DHT22;5498;50.928;11.598;2023-03-17T13:00:47;18.90;44.10
10891;DHT22;5498;50.928;11.598;2023-03-17T13:04:01;19.00;42.40
10891;DHT22;5498;50.928;11.598;2023-03-17T13:07:09;19.20;41.90
10891;DHT22;5498;50.928;11.598;2023-03-17T13:10:20;19.20;43.00
10891;DHT22;5498;50.928;11.598;2023-03-17T13:13:44;19.30;43.80
10891;DHT22;5498;50.928;11.598;2023-03-17T13:16:47;19.40;42.20
10891;DHT22;5498;50.928;11.598;2023-03-17T13:19:55;19.40;40.70
10891;DHT22;5498;50.928;11.598;2023-03-17T13:23:12;19.50;41.30
10891;DHT22;5498;50.928;11.598;2023-03-17T13:26:48;19.50;41.10
10891;DHT22;5498;50.928;11.598;2023-03-17T13:30:41;19.50;40.20
10891;DHT22;5498;50.928;11.598;2023-03-17T13:33:43;19.50;40.10
10891;DHT22;5498;50.928;11.598;2023-03-17T13:36:58;19.50;39.80
10891;DHT22;5498;50.928;11.598;2023-03-17T13:40:09;19.50;39.40
10891;DHT22;5498;50.928;11.598;2023-03-17T13:43:32;19.50;39.00
10891;DHT22;5498;50.928;11.598;2023-03-17T13:46:46;19.50;38.70
10891;DHT22;5498;50.928;11.598;2023-03-17T13:49:49;19.40;36.70
10891;DHT22;5498;50.928;11.598;2023-03-17T13:52:54;19.40;36.10
10891;DHT22;5498;50.928;11.598;2023-03-17T13:56:13;19.40;36.80
10891;DHT22;5498;50.928;11.598;2023-03-17T13:59:19;19.30;35.70
10891;DHT22;5498;50.928;11.598;2023-03-17T14:02:23;19.30;35.90
10891;DHT22;5498;50.928;11.598;2023-03-17T14:05:30;19.30;38.10
10891;DHT22;5498;50.928;11.598;2023-03-17T14:08:37;19.20;38.70
10891;DHT22;5498;50.928;11.598;2023-03-17T14:11:41;19.20;37.50
10891;DHT22;5498;50.928;11.598;2023-03-17T14:14:55;19.10;36.10
10891;DHT22;5498;50.928;11.598;2023-03-17T14:18:13;19.10;36.00
10891;DHT22;5498;50.928;11.598;2023-03-17T14:21:21;19.10;34.80
10891;DHT22;5498;50.928;11.598;2023-03-17T14:24:28;19.00;35.20
10891;DHT22;5498;50.928;11.598;2023-03-17T14:27:32;18.90;36.10
10891;DHT22;5498;50.928;11.598;2023-03-17T14:30:38;18.90;36.90
10891;DHT22;5498;50.928;11.598;2023-03-17T14:33:40;18.80;36.30
10891;DHT22;5498;50.928;11.598;2023-03-17T14:36:42;18.80;36.70
10891;DHT22;5498;50.928;11.598;2023-03-17T14:39:47;19.20;37.30
10891;DHT22;5498;50.928;11.598;2023-03-17T14:42:51;18.80;37.60
10891;DHT22;5498;50.928;11.598;2023-03-17T14:45:59;18.80;38.40
10891;DHT22;5498;50.928;11.598;2023-03-17T14:49:08;18.80;37.90
10891;DHT22;5498;50.928;11.598;2023-03-17T14:52:18;18.80;38.30
10891;DHT22;5498;50.928;11.598;2023-03-17T14:55:21;18.80;38.10
10891;DHT22;5498;50.928;11.598;2023-03-17T14:58:33;18.80;38.40
10891;DHT22;5498;50.928;11.598;2023-03-17T15:01:42;18.80;38.70
10891;DHT22;5498;50.928;11.598;2023-03-17T15:04:52;18.70;38.60
10891;DHT22;5498;50.928;11.598;2023-03-17T15:07:55;18.70;38.80
10891;DHT22;5498;50.928;11.598;2023-03-17T15:10:58;18.80;38.90
10891;DHT22;5498;50.928;11.598;2023-03-17T15:14:04;18.80;38.90
10891;DHT22;5498;50.928;11.598;2023-03-17T15:17:16;18.80;38.50
10891;DHT22;5498;50.928;11.598;2023-03-17T15:20:19;18.70;39.30
10891;DHT22;5498;50.928;11.598;2023-03-17T15:23:23;18.70;39.30
10891;DHT22;5498;50.928;11.598;2023-03-17T15:26:29;18.70;40.10
10891;DHT22;5498;50.928;11.598;2023-03-17T15:29:32;18.60;40.50
10891;DHT22;5498;50.928;11.598;2023-03-17T15:32:35;18.70;40.80
10891;DHT22;5498;50.928;11.598;2023-03-17T15:35:37;18.60;40.20
10891;DHT22;5498;50.928;11.598;2023-03-17T15:38:39;18.60;40.20
10891;DHT22;5498;50.928;11.598;2023-03-17T15:41:41;18.60;40.60
10891;DHT22;5498;50.928;11.598;2023-03-17T15:44:43;18.60;40.90
10891;DHT22;5498;50.928;11.598;2023-03-17T15:47:46;18.60;40.50
10891;DHT22;5498;50.928;11.598;2023-03-17T15:50:49;18.60;40.50
10891;DHT22;5498;50.928;11.598;2023-03-17T15:53:51;18.50;39.90
10891;DHT22;5498;50.928;11.598;2023-03-17T15:56:53;18.50;39.50
10891;DHT22;5498;50.928;11.598;2023-03-17T15:59:55;18.50;39.70
10891;DHT22;5498;50.928;11.598;2023-03-17T16:03:01;18.40;39.70
10891;DHT22;5498;50.928;11.598;2023-03-17T16:06:13;18.40;40.30
10891;DHT22;5498;50.928;11.598;2023-03-17T16:09:16;18.30;40.50
10891;DHT22;5498;50.928;11.598;2023-03-17T16:12:18;18.30;40.40
10891;DHT22;5498;50.928;11.598;2023-03-17T16:15:21;18.20;40.50
10891;DHT22;5498;50.928;11.598;2023-03-17T16:18:30;18.50;40.90
10891;DHT22;5498;50.928;11.598;2023-03-17T16:21:33;18.10;41.00
10891;DHT22;5498;50.928;11.598;2023-03-17T16:24:36;18.10;40.80
10891;DHT22;5498;50.928;11.598;2023-03-17T16:27:38;18.10;41.00
10891;DHT22;5498;50.928;11.598;2023-03-17T16:30:40;18.00;40.70
10891;DHT22;5498;50.928;11.598;2023-03-17T16:33:44;18.00;41.20
10891;DHT22;5498;50.928;11.598;2023-03-17T16:36:46;17.90;41.70
10891;DHT22;5498;50.928;11.598;2023-03-17T16:39:49;17.90;42.00
10891;DHT22;5498;50.928;11.598;2023-03-17T16:42:52;17.80;41.60
10891;DHT22;5498;50.928;11.598;2023-03-17T16:45:56;17.80;42.10
10891;DHT22;5498;50.928;11.598;2023-03-17T16:49:01;17.70;41.80
10891;DHT22;5498;50.928;11.598;2023-03-17T16:52:03;17.70;41.70
10891;DHT22;5498;50.928;11.598;2023-03-17T16:55:06;17.50;42.30
10891;DHT22;5498;50.928;11.598;2023-03-17T16:58:15;17.40;42.30
10891;DHT22;5498;50.928;11.598;2023-03-17T17:01:21;17.40;42.60
10891;DHT22;5498;50.928;11.598;2023-03-17T17:04:26;17.30;42.80
10891;DHT22;5498;50.928;11.598;2023-03-17T17:07:27;17.30;42.70
10891;DHT22;5498;50.928;11.598;2023-03-17T17:10:31;17.30;43.00
10891;DHT22;5498;50.928;11.598;2023-03-17T17:13:34;17.20;43.30
10891;DHT22;5498;50.928;11.598;2023-03-17T17:16:37;17.10;43.20
10891;DHT22;5498;50.928;11.598;2023-03-17T17:19:41;17.10;43.80
10891;DHT22;5498;50.928;11.598;2023-03-17T17:22:43;17.00;43.70
10891;DHT22;5498;50.928;11.598;2023-03-17T17:25:45;17.00;44.10
10891;DHT22;5498;50.928;11.598;2023-03-17T17:28:48;16.90;44.40
10891;DHT22;5498;50.928;11.598;2023-03-17T17:31:49;16.80;44.60
10891;DHT22;5498;50.928;11.598;2023-03-17T17:34:53;16.80;44.90
10891;DHT22;5498;50.928;11.598;2023-03-17T17:37:55;16.70;45.40
10891;DHT22;5498;50.928;11.598;2023-03-17T17:40:59;16.50;45.50
10891;DHT22;5498;50.928;11.598;2023-03-17T17:44:05;16.30;46.10
10891;DHT22;5498;50.928;11.598;2023-03-17T17:47:08;16.10;46.50
10891;DHT22;5498;50.928;11.598;2023-03-17T17:50:17;16.20;47.30
10891;DHT22;5498;50.928;11.598;2023-03-17T17:53:20;16.20;47.30
10891;DHT22;5498;50.928;11.598;2023-03-17T17:56:22;16.20;47.30
10891;DHT22;5498;50.928;11.598;2023-03-17T17:59:25;16.20;47.30
10891;DHT22;5498;50.928;11.598;2023-03-17T18:02:27;16.20;47.50
10891;DHT22;5498;50.928;11.598;2023-03-17T18:05:30;16.10;47.40
10891;DHT22;5498;50.928;11.598;2023-03-17T18:08:32;16.40;47.80
10891;DHT22;5498;50.928;11.598;2023-03-17T18:11:34;16.10;47.70
10891;DHT22;5498;50.928;11.598;2023-03-17T18:14:38;16.00;48.40
10891;DHT22;5498;50.928;11.598;2023-03-17T18:17:40;16.00;48.10
10891;DHT22;5498;50.928;11.598;2023-03-17T18:20:44;15.90;48.10
10891;DHT22;5498;50.928;11.598;2023-03-17T18:23:46;15.90;48.40
10891;DHT22;5498;50.928;11.598;2023-03-17T18:26:56;15.90;48.40
10891;DHT22;5498;50.928;11.598;2023-03-17T18:29:58;15.90;48.10
10891;DHT22;5498;50.928;11.598;2023-03-17T18:33:05;15.80;49.00
10891;DHT22;5498;50.928;11.598;2023-03-17T18:36:10;15.80;49.80
10891;DHT22;5498;50.928;11.598;2023-03-17T18:39:12;15.70;50.10
10891;DHT22;5498;50.928;11.598;2023-03-17T18:42:15;15.60;50.70
10891;DHT22;5498;50.928;11.598;2023-03-17T18:45:17;15.50;50.60
10891;DHT22;5498;50.928;11.598;2023-03-17T18:48:19;15.40;50.80
10891;DHT22;5498;50.928;11.598;2023-03-17T18:51:23;15.30;51.30
10891;DHT22;5498;50.928;11.598;2023-03-17T18:54:25;15.20;51.20
10891;DHT22;5498;50.928;11.598;2023-03-17T18:57:28;15.20;52.00
10891;DHT22;5498;50.928;11.598;2023-03-17T19:00:30;15.10;51.80
10891;DHT22;5498;50.928;11.598;2023-03-17T19:03:32;15.40;52.40
10891;DHT22;5498;50.928;11.598;2023-03-17T19:06:36;15.00;52.60
10891;DHT22;5498;50.928;11.598;2023-03-17T19:09:39;14.90;52.80
10891;DHT22;5498;50.928;11.598;2023-03-17T19:12:44;14.90;52.40
10891;DHT22;5498;50.928;11.598;2023-03-17T19:15:46;14.90;52.40
10891;DHT22;5498;50.928;11.598;2023-03-17T19:18:48;14.80;52.50
10891;DHT22;5498;50.928;11.598;2023-03-17T19:21:52;14.80;52.00
10891;DHT22;5498;50.928;11.598;2023-03-17T19:24:54;14.80;51.70
10891;DHT22;5498;50.928;11.598;2023-03-17T19:27:56;14.80;51.80
10891;DHT22;5498;50.928;11.598;2023-03-17T19:30:58;14.70;52.00
10891;DHT22;5498;50.928;11.598;2023-03-17T19:34:00;14.60;52.00
10891;DHT22;5498;50.928;11.598;2023-03-17T19:37:03;14.60;51.70